createdAt,value
2019-04-22T00:01:04.836Z,48.70
2019-04-22T00:03:37.740Z,48.90
2019-04-22T00:06:25.967Z,48.70
2019-04-22T00:08:57.688Z,48.70
2019-04-22T00:11:29.181Z,49.00
2019-04-22T00:13:56.719Z,48.90
2019-04-22T00:16:32.068Z,48.80
2019-04-22T00:21:35.219Z,48.80
2019-04-22T00:23:59.078Z,48.60
2019-04-22T00:29:20.805Z,48.70
2019-04-22T00:31:37.861Z,48.80
2019-04-22T00:34:06.148Z,49.30
2019-04-22T00:36:40.380Z,48.80
2019-04-22T00:39:18.465Z,48.90
2019-04-22T00:41:44.067Z,49.10
2019-04-22T00:44:15.324Z,49.10
2019-04-22T00:46:44.447Z,49.00
2019-04-22T00:49:52.899Z,49.10
2019-04-22T00:51:44.776Z,49.10
2019-04-22T00:54:13.645Z,49.20
2019-04-22T00:56:42.203Z,49.10
2019-04-22T00:59:15.623Z,49.20
2019-04-22T01:01:46.412Z,49.30
2019-04-22T01:04:19.911Z,49.30
2019-04-22T01:06:39.823Z,49.50
2019-04-22T01:09:31.312Z,49.60
2019-04-22T01:11:44.953Z,49.40
2019-04-22T01:14:20.296Z,49.60
2019-04-22T01:16:50.891Z,49.70
2019-04-22T01:19:12.301Z,50.30
2019-04-22T01:21:44.826Z,49.70
2019-04-22T01:24:18.691Z,49.90
2019-04-22T01:26:43.420Z,50.00
2019-04-22T01:29:12.663Z,50.10
2019-04-22T01:31:31.546Z,50.30
2019-04-22T01:34:33.454Z,50.20
2019-04-22T01:37:08.000Z,50.20
2019-04-22T01:39:43.940Z,50.40
2019-04-22T01:42:10.482Z,50.70
2019-04-22T01:44:46.621Z,50.80
2019-04-22T01:47:21.352Z,50.90
2019-04-22T01:49:46.166Z,50.90
2019-04-22T01:52:15.770Z,51.10
2019-04-22T01:54:52.528Z,50.90
2019-04-22T01:57:18.752Z,51.30
2019-04-22T01:59:44.307Z,51.30
2019-04-22T02:02:25.523Z,51.40
2019-04-22T02:04:53.663Z,51.50
2019-04-22T02:07:28.003Z,51.70
2019-04-22T02:09:58.469Z,51.90
2019-04-22T02:14:50.696Z,51.90
2019-04-22T02:17:26.580Z,51.80
2019-04-22T02:20:02.610Z,51.90
2019-04-22T02:22:44.255Z,52.20
2019-04-22T02:24:58.847Z,52.10
2019-04-22T02:27:32.538Z,52.50
2019-04-22T02:29:51.990Z,52.70
2019-04-22T02:35:25.969Z,52.90
2019-04-22T02:37:32.287Z,53.10
2019-04-22T02:40:03.677Z,53.10
2019-04-22T02:42:24.618Z,53.10
2019-04-22T02:44:57.952Z,53.50
2019-04-22T02:47:27.754Z,53.60
2019-04-22T02:50:05.240Z,53.70
2019-04-22T02:55:08.213Z,53.70
2019-04-22T02:57:39.766Z,54.00
2019-04-22T03:00:14.121Z,54.10
2019-04-22T03:05:13.308Z,54.50
2019-04-22T03:07:42.437Z,54.40
2019-04-22T03:10:10.039Z,54.40
2019-04-22T03:12:35.246Z,54.10
2019-04-22T03:15:07.317Z,54.30
2019-04-22T03:17:47.359Z,54.60
2019-04-22T03:22:46.867Z,55.10
2019-04-22T03:25:43.126Z,54.60
2019-04-22T03:37:50.513Z,54.30
2019-04-22T03:40:28.598Z,54.20
2019-04-22T03:45:28.406Z,54.50
2019-04-22T03:47:53.588Z,54.90
2019-04-22T03:50:20.739Z,54.80
2019-04-22T03:52:50.413Z,54.60
2019-04-22T03:55:34.329Z,54.50
2019-04-22T03:57:50.141Z,54.50
2019-04-22T04:00:28.454Z,54.60
2019-04-22T04:02:54.825Z,54.30
2019-04-22T04:05:33.444Z,54.40
2019-04-22T04:07:57.725Z,54.70
2019-04-22T04:13:01.926Z,54.00
2019-04-22T04:15:23.568Z,54.30
2019-04-22T04:17:56.963Z,54.00
2019-04-22T04:25:38.498Z,54.20
2019-04-22T04:30:30.157Z,54.10
2019-04-22T04:32:59.040Z,54.00
2019-04-22T04:37:56.030Z,53.80
2019-04-22T04:43:03.233Z,53.40
2019-04-22T04:45:51.214Z,51.60
2019-04-22T04:47:54.581Z,47.50
2019-04-22T04:50:27.348Z,43.60
2019-04-22T04:53:06.102Z,40.80
2019-04-22T04:55:30.467Z,39.10
2019-04-22T04:58:29.681Z,37.30
2019-04-22T05:00:48.655Z,36.60
2019-04-22T05:03:00.602Z,35.90
2019-04-22T05:05:35.295Z,35.00
2019-04-22T05:18:09.230Z,33.00
2019-04-22T05:23:01.244Z,37.40
2019-04-22T05:25:36.851Z,30.60
2019-04-22T05:28:08.762Z,34.30
2019-04-22T05:30:57.640Z,31.40
2019-04-22T05:33:08.720Z,30.90
2019-04-22T05:35:37.852Z,30.50
2019-04-22T05:38:20.142Z,30.40
2019-04-22T05:40:34.900Z,32.10
2019-04-22T05:43:09.674Z,32.40
2019-04-22T05:45:36.965Z,32.60
2019-04-22T05:48:13.628Z,33.90
2019-04-22T05:50:45.352Z,33.00
2019-04-22T05:53:07.234Z,34.20
2019-04-22T05:58:15.630Z,39.80
2019-04-22T06:01:11.451Z,42.50
2019-04-22T06:03:16.544Z,44.30
2019-04-22T06:05:47.209Z,45.60
2019-04-22T06:08:19.703Z,47.40
2019-04-22T06:10:53.110Z,47.20
2019-04-22T06:13:18.155Z,47.30
2019-04-22T06:15:44.017Z,47.20
2019-04-22T06:18:27.499Z,47.00
2019-04-22T06:26:35.896Z,48.50
2019-04-22T06:28:51.922Z,49.00
2019-04-22T06:31:27.848Z,48.90
2019-04-22T06:33:48.512Z,49.00
2019-04-22T06:36:27.623Z,48.80
2019-04-22T06:38:45.909Z,48.50
2019-04-22T06:41:24.824Z,48.10
2019-04-22T06:43:56.314Z,48.30
2019-04-22T06:46:25.460Z,48.20
2019-04-22T06:48:52.403Z,48.20
2019-04-22T06:51:19.809Z,48.20
2019-04-22T06:53:48.017Z,48.10
2019-04-22T06:56:25.054Z,47.90
2019-04-22T06:58:52.268Z,48.00
2019-04-22T07:01:27.592Z,47.90
2019-04-22T07:03:53.656Z,47.80
2019-04-22T07:06:26.410Z,47.40
2019-04-22T07:09:14.282Z,47.10
2019-04-22T07:11:23.667Z,47.90
2019-04-22T07:14:01.513Z,46.60
2019-04-22T07:16:31.956Z,46.50
2019-04-22T07:18:56.621Z,45.50
2019-04-22T07:21:30.613Z,45.90
2019-04-22T07:24:17.501Z,45.50
2019-04-22T07:26:24.175Z,45.30
2019-04-22T07:29:04.097Z,44.80
2019-04-22T07:31:29.010Z,44.70
2019-04-22T07:34:08.441Z,44.70
2019-04-22T07:36:45.605Z,44.90
2019-04-22T07:39:04.198Z,44.70
2019-04-22T07:41:31.717Z,44.70
2019-04-22T07:44:13.163Z,45.10
2019-04-22T07:46:35.456Z,44.40
2019-04-22T07:49:06.647Z,44.50
2019-04-22T07:54:07.533Z,43.80
2019-04-22T07:56:39.123Z,43.30
2019-04-22T07:59:13.997Z,44.00
2019-04-22T08:04:21.312Z,42.90
2019-04-22T08:06:43.644Z,43.60
2019-04-22T08:09:13.923Z,43.00
2019-04-22T08:14:07.566Z,42.70
2019-04-22T08:16:43.957Z,42.90
2019-04-22T08:19:17.000Z,43.20
2019-04-22T08:21:46.938Z,42.30
2019-04-22T08:26:38.323Z,41.00
2019-04-22T08:29:14.495Z,40.40
2019-04-22T08:31:40.372Z,40.10
2019-04-22T08:34:14.140Z,39.80
2019-04-22T08:37:10.314Z,39.70
2019-04-22T08:39:32.562Z,39.30
2019-04-22T08:44:18.605Z,39.00
2019-04-22T08:46:49.015Z,37.50
2019-04-22T08:49:09.929Z,37.60
2019-04-22T08:51:42.796Z,36.70
2019-04-22T08:56:45.653Z,33.90
2019-04-22T08:59:28.358Z,30.70
2019-04-22T09:01:43.495Z,28.70
2019-04-22T09:04:11.977Z,26.00
2019-04-22T09:09:21.207Z,24.70
2019-04-22T09:11:54.758Z,25.00
2019-04-22T09:14:29.737Z,25.50
2019-04-22T09:16:48.490Z,24.90
2019-04-22T09:19:24.062Z,24.10
2019-04-22T09:22:00.572Z,22.60
2019-04-22T09:24:23.442Z,23.10
2019-04-22T09:27:17.866Z,23.60
2019-04-22T09:29:36.764Z,24.50
2019-04-22T09:32:09.544Z,24.60
2019-04-22T09:34:34.957Z,24.50
2019-04-22T09:37:06.143Z,24.60
2019-04-22T09:39:34.706Z,25.00
2019-04-22T09:42:07.878Z,24.50
2019-04-22T09:44:36.174Z,24.00
2019-04-22T09:47:08.126Z,23.80
2019-04-22T09:49:46.644Z,23.10
2019-04-22T09:52:08.449Z,23.00
2019-04-22T09:57:01.834Z,22.20
2019-04-22T09:59:36.314Z,22.90
2019-04-22T10:02:21.446Z,22.80
2019-04-22T10:04:39.777Z,22.70
2019-04-22T10:07:11.137Z,22.90
2019-04-22T10:09:53.174Z,23.40
2019-04-22T10:12:10.198Z,24.10
2019-04-22T10:14:42.500Z,24.20
2019-04-22T10:17:07.798Z,23.90
2019-04-22T10:19:41.239Z,24.30
2019-04-22T10:22:12.128Z,22.50
2019-04-22T10:24:39.181Z,23.30
2019-04-22T10:27:05.986Z,23.60
2019-04-22T10:29:47.233Z,23.80
2019-04-22T10:32:11.292Z,24.00
2019-04-22T10:34:28.922Z,25.60
2019-04-22T10:36:54.422Z,25.40
2019-04-22T10:39:20.321Z,24.80
2019-04-22T10:41:50.595Z,24.90
2019-04-22T10:44:19.687Z,24.30
2019-04-22T10:46:49.737Z,24.00
2019-04-22T10:49:18.559Z,24.50
2019-04-22T10:51:48.610Z,24.10
2019-04-22T10:54:17.773Z,23.60
2019-04-22T10:56:46.704Z,22.90
2019-04-22T10:59:16.434Z,23.50
2019-04-22T11:01:46.529Z,23.30
2019-04-22T11:04:15.509Z,22.70
2019-04-22T11:06:52.091Z,22.90
2019-04-22T11:09:16.202Z,23.80
2019-04-22T11:11:54.217Z,24.50
2019-04-22T11:14:16.825Z,25.20
2019-04-22T11:16:45.724Z,26.30
2019-04-22T11:19:14.551Z,24.80
2019-04-22T11:21:56.116Z,24.20
2019-04-22T11:24:14.846Z,23.80
2019-04-22T11:26:43.186Z,23.20
2019-04-22T11:29:12.111Z,24.10
2019-04-22T11:31:42.115Z,25.10
2019-04-22T11:34:11.319Z,25.40
2019-04-22T11:36:40.870Z,25.50
2019-04-22T11:39:11.146Z,25.70
2019-04-22T11:41:40.253Z,25.60
2019-04-22T11:44:09.555Z,24.90
2019-04-22T11:46:39.213Z,24.90
2019-04-22T11:49:07.978Z,25.00
2019-04-22T11:51:38.083Z,26.30
2019-04-22T11:54:07.244Z,26.70
2019-04-22T11:56:36.915Z,27.00
2019-04-22T11:59:06.637Z,27.20
2019-04-22T12:01:35.028Z,27.50
2019-04-22T12:04:04.219Z,27.60
2019-04-22T12:06:33.748Z,27.70
2019-04-22T12:09:03.868Z,27.50
2019-04-22T12:11:32.772Z,27.70
2019-04-22T12:14:02.187Z,27.80
2019-04-22T12:16:31.646Z,27.60
2019-04-22T12:19:00.909Z,27.70
2019-04-22T12:21:30.960Z,27.50
2019-04-22T12:24:01.024Z,27.50
2019-04-22T12:26:30.635Z,27.60
2019-04-22T12:28:59.451Z,27.40
2019-04-22T12:31:29.294Z,27.70
2019-04-22T12:33:59.331Z,27.40
2019-04-22T12:36:28.675Z,27.30
2019-04-22T12:38:57.937Z,27.70
2019-04-22T12:41:27.795Z,28.00
2019-04-22T12:44:15.975Z,28.00
2019-04-22T12:46:46.015Z,27.90
2019-04-22T12:49:16.336Z,27.10
2019-04-22T12:51:45.406Z,27.00
2019-04-22T12:54:15.195Z,27.10
2019-04-22T12:56:43.968Z,26.90
2019-04-22T12:59:14.001Z,27.10
2019-04-22T13:01:43.031Z,27.20
2019-04-22T13:04:15.551Z,27.30
2019-04-22T13:06:43.971Z,27.20
2019-04-22T13:09:12.904Z,27.20
2019-04-22T13:11:42.690Z,26.80
2019-04-22T13:14:12.715Z,27.00
2019-04-22T13:16:42.839Z,27.10
2019-04-22T13:19:13.699Z,26.80
2019-04-22T13:21:42.743Z,26.70
2019-04-22T13:24:13.120Z,26.40
2019-04-22T13:26:43.078Z,26.10
2019-04-22T13:29:12.767Z,26.10
2019-04-22T13:31:42.426Z,26.30
2019-04-22T13:34:25.561Z,27.10
2019-04-22T13:36:43.664Z,27.20
2019-04-22T13:39:13.304Z,27.70
2019-04-22T13:41:48.741Z,27.00
2019-04-22T13:44:12.875Z,26.80
2019-04-22T13:47:02.110Z,26.70
2019-04-22T13:49:40.700Z,26.60
2019-04-22T13:52:24.369Z,26.00
2019-04-22T13:57:01.678Z,26.50
2019-04-22T13:59:26.091Z,25.80
2019-04-22T14:02:01.456Z,25.90
2019-04-22T14:04:32.672Z,25.80
2019-04-22T14:07:02.882Z,26.20
2019-04-22T14:09:33.597Z,26.30
2019-04-22T14:12:05.670Z,26.50
2019-04-22T14:14:33.708Z,26.70
2019-04-22T14:17:03.001Z,26.80
2019-04-22T14:19:32.283Z,26.80
2019-04-22T14:22:01.957Z,26.40
2019-04-22T14:24:30.174Z,26.40
2019-04-22T14:27:13.893Z,26.50
2019-04-22T14:29:29.499Z,26.20
2019-04-22T14:32:05.269Z,26.30
2019-04-22T14:34:30.255Z,26.40
2019-04-22T14:36:59.410Z,26.00
2019-04-22T14:39:28.431Z,26.00
2019-04-22T14:44:08.381Z,25.80
2019-04-22T14:47:19.609Z,25.10
2019-04-22T14:49:54.326Z,25.40
2019-04-22T14:52:22.796Z,25.30
2019-04-22T14:54:43.399Z,25.40
2019-04-22T14:57:01.137Z,25.20
2019-04-22T14:59:31.173Z,25.60
2019-04-22T15:02:01.433Z,25.00
2019-04-22T15:04:31.079Z,25.10
2019-04-22T15:07:01.159Z,25.30
2019-04-22T15:09:30.153Z,25.30
2019-04-22T15:12:11.130Z,25.50
2019-04-22T15:14:29.891Z,25.50
2019-04-22T15:17:13.129Z,25.20
2019-04-22T15:19:49.726Z,25.30
2019-04-22T15:22:18.823Z,25.30
2019-04-22T15:24:47.596Z,25.50
2019-04-22T15:27:16.415Z,25.50
2019-04-22T15:29:45.200Z,25.40
2019-04-22T15:32:15.319Z,25.20
2019-04-22T15:34:44.573Z,25.40
2019-04-22T15:37:13.949Z,25.60
2019-04-22T15:39:43.687Z,25.70
2019-04-22T15:42:20.173Z,25.90
2019-04-22T15:44:42.328Z,26.10
2019-04-22T15:47:11.256Z,26.20
2019-04-22T15:49:40.270Z,26.30
2019-04-22T15:52:10.457Z,26.60
2019-04-22T15:54:39.579Z,26.50
2019-04-22T15:57:08.896Z,26.70
2019-04-22T15:59:56.284Z,26.80
2019-04-22T16:02:09.968Z,26.80
2019-04-22T16:04:38.874Z,26.90
2019-04-22T16:07:08.615Z,26.90
2019-04-22T16:09:36.810Z,27.00
2019-04-22T16:12:16.329Z,27.40
2019-04-22T16:14:42.004Z,27.10
2019-04-22T16:17:06.712Z,27.20
2019-04-22T16:19:36.942Z,27.50
2019-04-22T16:22:11.190Z,27.40
2019-04-22T16:24:38.252Z,27.60
2019-04-22T16:27:11.773Z,27.60
2019-04-22T16:29:41.355Z,27.60
2019-04-22T16:32:11.416Z,27.70
2019-04-22T16:34:40.365Z,27.90
2019-04-22T16:37:10.470Z,27.90
2019-04-22T16:39:41.960Z,28.10
2019-04-22T16:42:14.458Z,28.30
2019-04-22T16:44:40.722Z,28.40
2019-04-22T16:47:09.976Z,28.40
2019-04-22T16:49:39.281Z,28.60
2019-04-22T16:52:08.163Z,28.80
2019-04-22T16:54:36.964Z,28.90
2019-04-22T16:57:06.009Z,29.10
2019-04-22T16:59:35.201Z,29.40
2019-04-22T17:02:19.002Z,29.60
2019-04-22T17:04:53.809Z,29.80
2019-04-22T17:07:22.734Z,30.00
2019-04-22T17:09:52.145Z,30.00
2019-04-22T17:12:23.740Z,30.00
2019-04-22T17:14:58.018Z,30.50
2019-04-22T17:17:22.415Z,30.50
2019-04-22T17:19:53.281Z,30.70
2019-04-22T17:22:21.783Z,30.90
2019-04-22T17:24:50.806Z,31.10
2019-04-22T17:27:20.226Z,31.20
2019-04-22T17:29:50.450Z,31.40
2019-04-22T17:32:22.951Z,31.50
2019-04-22T17:34:49.888Z,31.60
2019-04-22T17:37:25.827Z,31.90
2019-04-22T17:40:07.299Z,32.40
2019-04-22T17:42:40.550Z,32.80
2019-04-22T17:45:19.135Z,32.70
2019-04-22T17:47:43.215Z,33.00
2019-04-22T17:50:18.303Z,33.30
2019-04-22T17:52:59.450Z,33.50
2019-04-22T17:55:21.409Z,33.50
2019-04-22T17:57:40.902Z,52.10
2019-04-22T18:00:17.211Z,34.10
2019-04-22T18:02:46.014Z,34.30
2019-04-22T18:05:03.742Z,34.50
2019-04-22T18:07:48.871Z,34.90
2019-04-22T18:13:15.736Z,34.90
2019-04-22T18:15:19.140Z,35.10
2019-04-22T18:17:57.052Z,36.80
2019-04-22T18:20:17.528Z,35.20
2019-04-22T18:22:44.581Z,35.60
2019-04-22T18:25:14.096Z,35.40
2019-04-22T18:28:04.189Z,36.50
2019-04-22T18:30:18.740Z,35.80
2019-04-22T18:32:50.655Z,36.00
2019-04-22T18:35:26.493Z,35.90
2019-04-22T18:38:11.328Z,36.00
2019-04-22T18:40:30.588Z,36.30
2019-04-22T18:43:03.699Z,37.30
2019-04-22T18:45:43.789Z,36.50
2019-04-22T18:47:55.469Z,36.80
2019-04-22T18:50:46.644Z,37.40
2019-04-22T18:53:35.214Z,37.30
2019-04-22T18:56:13.851Z,37.40
2019-04-22T18:58:34.346Z,37.50
2019-04-22T19:00:52.538Z,37.70
2019-04-22T19:03:26.319Z,38.70
2019-04-22T19:06:27.481Z,37.80
2019-04-22T19:08:43.064Z,37.80
2019-04-22T19:11:11.243Z,37.80
2019-04-22T19:16:27.422Z,38.00
2019-04-22T19:18:52.509Z,37.70
2019-04-22T19:21:14.920Z,37.90
2019-04-22T19:23:44.845Z,37.90
2019-04-22T19:26:23.212Z,38.30
2019-04-22T19:28:49.796Z,38.30
2019-04-22T19:31:21.879Z,38.40
2019-04-22T19:33:50.072Z,38.50
2019-04-22T19:36:20.637Z,39.00
2019-04-22T19:38:49.798Z,39.40
2019-04-22T19:41:24.140Z,40.00
2019-04-22T19:43:53.280Z,39.40
2019-04-22T19:46:18.278Z,39.30
2019-04-22T19:48:57.828Z,39.50
2019-04-22T19:51:30.861Z,39.80
2019-04-22T19:53:52.417Z,39.90
2019-04-22T19:56:19.071Z,40.00
2019-04-22T19:58:47.656Z,40.30
2019-04-22T20:01:44.121Z,40.00
2019-04-22T20:04:21.923Z,39.80
2019-04-22T20:06:49.145Z,40.00
2019-04-22T20:09:25.048Z,40.10
2019-04-22T20:11:51.778Z,40.20
2019-04-22T20:14:23.491Z,40.20
2019-04-22T20:16:48.732Z,40.60
2019-04-22T20:19:35.724Z,40.80
2019-04-22T20:22:00.026Z,42.10
2019-04-22T20:24:12.947Z,42.90
2019-04-22T20:27:15.235Z,43.40
2019-04-22T20:29:31.069Z,44.30
2019-04-22T20:31:59.196Z,45.40
2019-04-22T20:34:33.006Z,45.00
2019-04-22T20:37:03.640Z,44.30
2019-04-22T20:39:33.432Z,54.60
2019-04-22T20:42:05.587Z,56.50
2019-04-22T20:44:39.570Z,58.20
2019-04-22T20:47:00.034Z,54.60
2019-04-22T20:49:38.385Z,44.20
2019-04-22T20:52:16.418Z,44.10
2019-04-22T20:54:40.223Z,43.60
2019-04-22T20:57:07.371Z,43.90
2019-04-22T20:59:37.934Z,43.10
2019-04-22T21:02:06.605Z,43.50
2019-04-22T21:04:32.325Z,43.10
2019-04-22T21:07:05.085Z,42.90
2019-04-22T21:09:38.185Z,42.90
2019-04-22T21:12:12.495Z,42.80
2019-04-22T21:14:41.326Z,43.00
2019-04-22T21:17:13.790Z,42.60
2019-04-22T21:19:46.455Z,42.70
2019-04-22T21:22:16.224Z,42.30
2019-04-22T21:24:47.538Z,43.10
2019-04-22T21:27:22.257Z,42.70
2019-04-22T21:29:40.318Z,42.80
2019-04-22T21:32:21.671Z,43.20
2019-04-22T21:34:54.033Z,42.70
2019-04-22T21:37:22.180Z,42.70
2019-04-22T21:39:42.004Z,42.20
2019-04-22T21:42:15.881Z,42.10
2019-04-22T21:44:46.975Z,42.20
2019-04-22T21:47:23.910Z,42.50
2019-04-22T21:49:53.490Z,42.60
2019-04-22T21:52:24.495Z,42.30
2019-04-22T21:54:57.124Z,42.70
2019-04-22T21:57:44.098Z,47.10
2019-04-22T22:00:17.677Z,43.90
2019-04-22T22:02:47.671Z,43.40
2019-04-22T22:05:07.863Z,43.40
2019-04-22T22:07:25.662Z,43.20
2019-04-22T22:10:13.490Z,43.30
2019-04-22T22:12:42.269Z,43.80
2019-04-22T22:15:13.271Z,43.40
2019-04-22T22:17:35.528Z,43.30
2019-04-22T22:20:08.138Z,43.10
2019-04-22T22:25:17.941Z,44.80
2019-04-22T22:27:40.853Z,45.80
2019-04-22T22:30:38.814Z,44.70
2019-04-22T22:32:47.808Z,44.00
2019-04-22T22:35:16.856Z,44.00
2019-04-22T22:37:45.006Z,43.80
2019-04-22T22:40:05.533Z,43.50
2019-04-22T22:42:34.552Z,43.70
2019-04-22T22:45:07.855Z,44.20
2019-04-22T22:47:45.636Z,44.70
2019-04-22T22:50:20.641Z,44.50
2019-04-22T22:53:00.860Z,44.20
2019-04-22T22:55:24.920Z,44.40
2019-04-22T22:57:50.053Z,44.40
2019-04-22T23:00:22.331Z,44.20
2019-04-22T23:03:10.771Z,44.00
2019-04-22T23:05:25.758Z,44.00
2019-04-22T23:07:54.173Z,44.10
2019-04-22T23:10:25.404Z,44.30
2019-04-22T23:12:55.577Z,44.60
2019-04-22T23:15:20.363Z,44.30
2019-04-22T23:17:37.026Z,44.50
2019-04-22T23:20:05.745Z,44.70
2019-04-22T23:22:58.967Z,44.60
2019-04-22T23:25:28.157Z,45.00
2019-04-22T23:28:00.012Z,45.00
2019-04-22T23:30:30.037Z,44.70
2019-04-22T23:33:16.226Z,44.90
2019-04-22T23:35:56.355Z,44.80
2019-04-22T23:38:24.192Z,44.90
2019-04-22T23:41:00.076Z,44.80
2019-04-22T23:43:32.646Z,45.10
2019-04-22T23:46:07.006Z,45.20
2019-04-22T23:48:29.070Z,45.00
2019-04-22T23:51:09.231Z,45.10
2019-04-22T23:53:57.973Z,45.40
2019-04-22T23:56:10.992Z,45.50
